sensor_id;sensor_type;location;lat;lon;timestamp;P1;durP1;ratioP1;P2;durP2;ratioP2
70985;SDS011;58645;43.068;25.610;2023-07-29T00:01:40;5.88;;;3.50;;
70985;SDS011;58645;43.068;25.610;2023-07-29T00:04:06;4.53;;;3.15;;
70985;SDS011;58645;43.068;25.610;2023-07-29T00:06:34;5.47;;;3.45;;
70985;SDS011;58645;43.068;25.610;2023-07-29T00:11:26;6.90;;;3.15;;
70985;SDS011;58645;43.068;25.610;2023-07-29T00:13:51;4.88;;;2.90;;
70985;SDS011;58645;43.068;25.610;2023-07-29T00:16:18;4.57;;;2.47;;
70985;SDS011;58645;43.068;25.610;2023-07-29T00:18:47;4.38;;;2.40;;
70985;SDS011;58645;43.068;25.610;2023-07-29T00:21:13;4.68;;;2.58;;
70985;SDS011;58645;43.068;25.610;2023-07-29T00:23:39;4.70;;;3.00;;
70985;SDS011;58645;43.068;25.610;2023-07-29T00:26:05;4.00;;;2.70;;
70985;SDS011;58645;43.068;25.610;2023-07-29T00:28:30;3.85;;;2.35;;
70985;SDS011;58645;43.068;25.610;2023-07-29T00:30:56;4.07;;;2.50;;
70985;SDS011;58645;43.068;25.610;2023-07-29T00:33:22;3.83;;;2.60;;
70985;SDS011;58645;43.068;25.610;2023-07-29T00:35:48;4.10;;;2.50;;
70985;SDS011;58645;43.068;25.610;2023-07-29T00:38:14;3.75;;;2.08;;
70985;SDS011;58645;43.068;25.610;2023-07-29T00:40:39;3.50;;;2.20;;
70985;SDS011;58645;43.068;25.610;2023-07-29T00:43:05;2.95;;;1.95;;
70985;SDS011;58645;43.068;25.610;2023-07-29T00:45:31;4.07;;;2.25;;
70985;SDS011;58645;43.068;25.610;2023-07-29T00:47:58;3.63;;;2.30;;
70985;SDS011;58645;43.068;25.610;2023-07-29T00:50:28;4.78;;;2.67;;
70985;SDS011;58645;43.068;25.610;2023-07-29T00:52:55;4.35;;;2.72;;
70985;SDS011;58645;43.068;25.610;2023-07-29T00:55:22;3.53;;;2.50;;
70985;SDS011;58645;43.068;25.610;2023-07-29T00:57:48;4.10;;;2.67;;
70985;SDS011;58645;43.068;25.610;2023-07-29T01:00:16;6.50;;;3.05;;
70985;SDS011;58645;43.068;25.610;2023-07-29T01:02:42;4.40;;;2.67;;
70985;SDS011;58645;43.068;25.610;2023-07-29T01:07:44;8.27;;;5.47;;
70985;SDS011;58645;43.068;25.610;2023-07-29T01:15:58;6.10;;;4.47;;
70985;SDS011;58645;43.068;25.610;2023-07-29T01:21:02;7.00;;;3.63;;
70985;SDS011;58645;43.068;25.610;2023-07-29T01:23:30;6.05;;;4.22;;
70985;SDS011;58645;43.068;25.610;2023-07-29T01:25:56;5.78;;;3.83;;
70985;SDS011;58645;43.068;25.610;2023-07-29T01:28:22;4.57;;;3.15;;
70985;SDS011;58645;43.068;25.610;2023-07-29T01:30:49;5.45;;;3.05;;
70985;SDS011;58645;43.068;25.610;2023-07-29T01:33:26;4.78;;;2.63;;
70985;SDS011;58645;43.068;25.610;2023-07-29T01:35:57;4.93;;;2.72;;
70985;SDS011;58645;43.068;25.610;2023-07-29T01:38:36;3.90;;;2.47;;
70985;SDS011;58645;43.068;25.610;2023-07-29T01:41:07;8.88;;;3.72;;
70985;SDS011;58645;43.068;25.610;2023-07-29T01:43:34;6.25;;;3.55;;
70985;SDS011;58645;43.068;25.610;2023-07-29T01:46:06;7.15;;;3.83;;
70985;SDS011;58645;43.068;25.610;2023-07-29T01:48:32;5.40;;;3.35;;
70985;SDS011;58645;43.068;25.610;2023-07-29T01:50:58;3.67;;;2.80;;
70985;SDS011;58645;43.068;25.610;2023-07-29T01:53:23;3.67;;;2.47;;
70985;SDS011;58645;43.068;25.610;2023-07-29T01:55:49;4.50;;;2.65;;
70985;SDS011;58645;43.068;25.610;2023-07-29T01:58:15;4.65;;;2.25;;
70985;SDS011;58645;43.068;25.610;2023-07-29T02:00:40;3.55;;;2.55;;
70985;SDS011;58645;43.068;25.610;2023-07-29T02:03:06;4.72;;;2.65;;
70985;SDS011;58645;43.068;25.610;2023-07-29T02:05:32;3.65;;;2.13;;
70985;SDS011;58645;43.068;25.610;2023-07-29T02:07:58;3.33;;;2.17;;
70985;SDS011;58645;43.068;25.610;2023-07-29T02:10:25;4.55;;;2.20;;
70985;SDS011;58645;43.068;25.610;2023-07-29T02:12:51;4.85;;;2.40;;
70985;SDS011;58645;43.068;25.610;2023-07-29T02:15:17;3.08;;;2.10;;
70985;SDS011;58645;43.068;25.610;2023-07-29T02:17:42;4.40;;;2.10;;
70985;SDS011;58645;43.068;25.610;2023-07-29T02:20:08;3.17;;;2.03;;
70985;SDS011;58645;43.068;25.610;2023-07-29T02:22:35;3.45;;;1.75;;
70985;SDS011;58645;43.068;25.610;2023-07-29T02:25:01;3.30;;;2.00;;
70985;SDS011;58645;43.068;25.610;2023-07-29T02:29:53;3.47;;;2.25;;
70985;SDS011;58645;43.068;25.610;2023-07-29T02:32:19;3.15;;;2.03;;
70985;SDS011;58645;43.068;25.610;2023-07-29T02:34:46;3.67;;;2.05;;
70985;SDS011;58645;43.068;25.610;2023-07-29T02:37:12;3.25;;;1.98;;
70985;SDS011;58645;43.068;25.610;2023-07-29T02:39:37;3.35;;;1.85;;
70985;SDS011;58645;43.068;25.610;2023-07-29T02:42:03;2.80;;;1.77;;
70985;SDS011;58645;43.068;25.610;2023-07-29T02:44:29;4.65;;;2.22;;
70985;SDS011;58645;43.068;25.610;2023-07-29T02:46:55;3.33;;;2.63;;
70985;SDS011;58645;43.068;25.610;2023-07-29T02:49:21;4.32;;;2.38;;
70985;SDS011;58645;43.068;25.610;2023-07-29T02:51:48;4.70;;;2.28;;
70985;SDS011;58645;43.068;25.610;2023-07-29T02:54:13;3.13;;;2.33;;
70985;SDS011;58645;43.068;25.610;2023-07-29T02:56:39;4.60;;;2.90;;
70985;SDS011;58645;43.068;25.610;2023-07-29T02:59:05;5.15;;;2.75;;
70985;SDS011;58645;43.068;25.610;2023-07-29T03:01:30;4.53;;;2.42;;
70985;SDS011;58645;43.068;25.610;2023-07-29T03:03:56;3.83;;;2.80;;
70985;SDS011;58645;43.068;25.610;2023-07-29T03:06:22;4.40;;;2.88;;
70985;SDS011;58645;43.068;25.610;2023-07-29T03:08:49;4.88;;;3.47;;
70985;SDS011;58645;43.068;25.610;2023-07-29T03:11:15;5.72;;;3.30;;
70985;SDS011;58645;43.068;25.610;2023-07-29T03:13:42;4.90;;;3.08;;
70985;SDS011;58645;43.068;25.610;2023-07-29T03:16:09;7.10;;;3.35;;
70985;SDS011;58645;43.068;25.610;2023-07-29T03:18:39;5.75;;;2.75;;
70985;SDS011;58645;43.068;25.610;2023-07-29T03:21:06;4.85;;;3.75;;
70985;SDS011;58645;43.068;25.610;2023-07-29T03:23:32;5.50;;;3.75;;
70985;SDS011;58645;43.068;25.610;2023-07-29T03:25:58;6.57;;;3.33;;
70985;SDS011;58645;43.068;25.610;2023-07-29T03:28:25;5.40;;;3.55;;
70985;SDS011;58645;43.068;25.610;2023-07-29T03:30:56;5.57;;;3.45;;
70985;SDS011;58645;43.068;25.610;2023-07-29T03:33:21;5.43;;;3.72;;
70985;SDS011;58645;43.068;25.610;2023-07-29T03:35:48;6.30;;;3.85;;
70985;SDS011;58645;43.068;25.610;2023-07-29T03:38:14;8.30;;;4.28;;
70985;SDS011;58645;43.068;25.610;2023-07-29T03:40:40;7.88;;;4.25;;
70985;SDS011;58645;43.068;25.610;2023-07-29T03:43:07;8.63;;;4.72;;
70985;SDS011;58645;43.068;25.610;2023-07-29T03:47:59;7.97;;;5.60;;
70985;SDS011;58645;43.068;25.610;2023-07-29T03:50:25;11.50;;;5.78;;
70985;SDS011;58645;43.068;25.610;2023-07-29T03:52:51;9.32;;;5.22;;
70985;SDS011;58645;43.068;25.610;2023-07-29T03:55:17;11.23;;;5.47;;
70985;SDS011;58645;43.068;25.610;2023-07-29T03:57:43;8.90;;;5.85;;
70985;SDS011;58645;43.068;25.610;2023-07-29T04:00:09;9.18;;;5.35;;
70985;SDS011;58645;43.068;25.610;2023-07-29T04:02:35;8.82;;;5.22;;
70985;SDS011;58645;43.068;25.610;2023-07-29T04:05:04;10.20;;;5.63;;
70985;SDS011;58645;43.068;25.610;2023-07-29T04:07:33;11.38;;;6.50;;
70985;SDS011;58645;43.068;25.610;2023-07-29T04:09:59;11.18;;;5.68;;
70985;SDS011;58645;43.068;25.610;2023-07-29T04:12:26;7.95;;;6.00;;
70985;SDS011;58645;43.068;25.610;2023-07-29T04:14:52;8.90;;;5.75;;
70985;SDS011;58645;43.068;25.610;2023-07-29T04:17:17;12.30;;;7.75;;
70985;SDS011;58645;43.068;25.610;2023-07-29T04:19:43;12.60;;;5.15;;
70985;SDS011;58645;43.068;25.610;2023-07-29T04:22:09;8.95;;;4.95;;
70985;SDS011;58645;43.068;25.610;2023-07-29T04:24:35;9.75;;;5.93;;
70985;SDS011;58645;43.068;25.610;2023-07-29T04:27:00;10.38;;;5.72;;
70985;SDS011;58645;43.068;25.610;2023-07-29T04:29:26;7.97;;;5.68;;
70985;SDS011;58645;43.068;25.610;2023-07-29T04:31:52;6.95;;;5.03;;
70985;SDS011;58645;43.068;25.610;2023-07-29T04:34:18;6.90;;;5.55;;
70985;SDS011;58645;43.068;25.610;2023-07-29T04:36:47;15.52;;;8.40;;
70985;SDS011;58645;43.068;25.610;2023-07-29T04:39:13;12.82;;;9.25;;
70985;SDS011;58645;43.068;25.610;2023-07-29T04:41:39;15.38;;;10.93;;
70985;SDS011;58645;43.068;25.610;2023-07-29T04:44:05;16.23;;;11.60;;
70985;SDS011;58645;43.068;25.610;2023-07-29T04:48:57;18.27;;;12.13;;
70985;SDS011;58645;43.068;25.610;2023-07-29T04:51:23;16.73;;;12.05;;
70985;SDS011;58645;43.068;25.610;2023-07-29T04:56:15;17.65;;;10.63;;
70985;SDS011;58645;43.068;25.610;2023-07-29T04:58:41;14.82;;;8.07;;
70985;SDS011;58645;43.068;25.610;2023-07-29T05:01:06;13.10;;;8.20;;
70985;SDS011;58645;43.068;25.610;2023-07-29T05:03:32;12.90;;;7.45;;
70985;SDS011;58645;43.068;25.610;2023-07-29T05:05:58;20.60;;;14.07;;
70985;SDS011;58645;43.068;25.610;2023-07-29T05:08:27;18.08;;;9.98;;
70985;SDS011;58645;43.068;25.610;2023-07-29T05:10:53;14.02;;;8.73;;
70985;SDS011;58645;43.068;25.610;2023-07-29T05:13:20;12.13;;;7.03;;
70985;SDS011;58645;43.068;25.610;2023-07-29T05:15:47;10.30;;;6.85;;
70985;SDS011;58645;43.068;25.610;2023-07-29T05:18:14;12.43;;;7.47;;
70985;SDS011;58645;43.068;25.610;2023-07-29T05:20:40;9.35;;;6.68;;
70985;SDS011;58645;43.068;25.610;2023-07-29T05:23:06;12.55;;;5.85;;
70985;SDS011;58645;43.068;25.610;2023-07-29T05:25:31;9.77;;;5.53;;
70985;SDS011;58645;43.068;25.610;2023-07-29T05:27:59;7.25;;;5.40;;
70985;SDS011;58645;43.068;25.610;2023-07-29T05:30:28;9.52;;;5.95;;
70985;SDS011;58645;43.068;25.610;2023-07-29T05:33:02;8.68;;;6.15;;
70985;SDS011;58645;43.068;25.610;2023-07-29T05:35:29;11.18;;;7.03;;
70985;SDS011;58645;43.068;25.610;2023-07-29T05:37:55;11.98;;;7.63;;
70985;SDS011;58645;43.068;25.610;2023-07-29T05:40:21;11.10;;;6.38;;
70985;SDS011;58645;43.068;25.610;2023-07-29T05:42:46;8.70;;;6.15;;
70985;SDS011;58645;43.068;25.610;2023-07-29T05:45:13;7.72;;;5.80;;
70985;SDS011;58645;43.068;25.610;2023-07-29T05:47:38;10.25;;;5.43;;
70985;SDS011;58645;43.068;25.610;2023-07-29T05:50:04;7.53;;;4.70;;
70985;SDS011;58645;43.068;25.610;2023-07-29T05:52:31;6.63;;;3.65;;
70985;SDS011;58645;43.068;25.610;2023-07-29T05:54:57;5.95;;;3.78;;
70985;SDS011;58645;43.068;25.610;2023-07-29T05:57:23;6.38;;;3.28;;
70985;SDS011;58645;43.068;25.610;2023-07-29T05:59:48;5.07;;;3.33;;
70985;SDS011;58645;43.068;25.610;2023-07-29T06:04:40;2.83;;;1.85;;
70985;SDS011;58645;43.068;25.610;2023-07-29T06:07:06;2.53;;;1.83;;
70985;SDS011;58645;43.068;25.610;2023-07-29T06:11:57;3.78;;;1.80;;
70985;SDS011;58645;43.068;25.610;2023-07-29T06:16:48;2.47;;;1.67;;
70985;SDS011;58645;43.068;25.610;2023-07-29T06:21:40;5.07;;;2.95;;
70985;SDS011;58645;43.068;25.610;2023-07-29T06:24:05;4.63;;;2.75;;
70985;SDS011;58645;43.068;25.610;2023-07-29T06:26:31;4.78;;;2.67;;
70985;SDS011;58645;43.068;25.610;2023-07-29T06:28:57;6.65;;;2.97;;
70985;SDS011;58645;43.068;25.610;2023-07-29T06:31:22;5.00;;;3.33;;
70985;SDS011;58645;43.068;25.610;2023-07-29T06:33:48;7.45;;;4.45;;
70985;SDS011;58645;43.068;25.610;2023-07-29T06:36:14;5.40;;;3.08;;
70985;SDS011;58645;43.068;25.610;2023-07-29T06:38:39;7.60;;;5.15;;
70985;SDS011;58645;43.068;25.610;2023-07-29T06:41:06;8.88;;;5.13;;
70985;SDS011;58645;43.068;25.610;2023-07-29T06:43:31;2.63;;;2.13;;
70985;SDS011;58645;43.068;25.610;2023-07-29T06:45:57;5.60;;;3.08;;
70985;SDS011;58645;43.068;25.610;2023-07-29T06:48:23;6.30;;;4.55;;
70985;SDS011;58645;43.068;25.610;2023-07-29T06:50:49;8.75;;;6.07;;
70985;SDS011;58645;43.068;25.610;2023-07-29T06:53:20;12.80;;;7.28;;
70985;SDS011;58645;43.068;25.610;2023-07-29T06:55:46;9.07;;;7.18;;
70985;SDS011;58645;43.068;25.610;2023-07-29T06:58:12;8.30;;;5.95;;
70985;SDS011;58645;43.068;25.610;2023-07-29T07:00:38;6.20;;;3.78;;
70985;SDS011;58645;43.068;25.610;2023-07-29T07:03:03;3.47;;;2.22;;
70985;SDS011;58645;43.068;25.610;2023-07-29T07:05:29;4.40;;;2.40;;
70985;SDS011;58645;43.068;25.610;2023-07-29T07:07:55;3.90;;;1.95;;
70985;SDS011;58645;43.068;25.610;2023-07-29T07:10:20;4.93;;;2.65;;
70985;SDS011;58645;43.068;25.610;2023-07-29T07:12:46;2.90;;;2.05;;
70985;SDS011;58645;43.068;25.610;2023-07-29T07:15:12;2.95;;;2.17;;
70985;SDS011;58645;43.068;25.610;2023-07-29T07:17:38;3.38;;;2.20;;
70985;SDS011;58645;43.068;25.610;2023-07-29T07:20:04;3.85;;;2.22;;
70985;SDS011;58645;43.068;25.610;2023-07-29T07:22:30;4.88;;;2.25;;
70985;SDS011;58645;43.068;25.610;2023-07-29T07:24:56;2.53;;;1.58;;
70985;SDS011;58645;43.068;25.610;2023-07-29T07:27:22;2.10;;;1.40;;
70985;SDS011;58645;43.068;25.610;2023-07-29T07:29:47;2.80;;;1.50;;
70985;SDS011;58645;43.068;25.610;2023-07-29T07:32:13;9.40;;;5.63;;
70985;SDS011;58645;43.068;25.610;2023-07-29T07:34:39;2.67;;;2.22;;
70985;SDS011;58645;43.068;25.610;2023-07-29T07:37:04;4.50;;;2.70;;
70985;SDS011;58645;43.068;25.610;2023-07-29T07:39:31;9.07;;;4.10;;
70985;SDS011;58645;43.068;25.610;2023-07-29T07:41:57;5.00;;;3.88;;
70985;SDS011;58645;43.068;25.610;2023-07-29T07:44:23;2.92;;;1.63;;
70985;SDS011;58645;43.068;25.610;2023-07-29T07:46:51;4.15;;;2.17;;
70985;SDS011;58645;43.068;25.610;2023-07-29T07:49:17;4.32;;;2.70;;
70985;SDS011;58645;43.068;25.610;2023-07-29T07:51:43;4.32;;;3.10;;
70985;SDS011;58645;43.068;25.610;2023-07-29T07:54:09;6.18;;;2.92;;
70985;SDS011;58645;43.068;25.610;2023-07-29T07:56:35;3.50;;;2.20;;
70985;SDS011;58645;43.068;25.610;2023-07-29T07:59:01;4.13;;;2.15;;
70985;SDS011;58645;43.068;25.610;2023-07-29T08:01:26;3.72;;;1.70;;
70985;SDS011;58645;43.068;25.610;2023-07-29T08:03:52;2.45;;;1.50;;
70985;SDS011;58645;43.068;25.610;2023-07-29T08:06:18;3.30;;;2.10;;
70985;SDS011;58645;43.068;25.610;2023-07-29T08:08:43;2.40;;;1.73;;
70985;SDS011;58645;43.068;25.610;2023-07-29T08:11:09;2.85;;;2.17;;
70985;SDS011;58645;43.068;25.610;2023-07-29T08:13:35;2.78;;;1.80;;
70985;SDS011;58645;43.068;25.610;2023-07-29T08:16:00;2.33;;;1.63;;
70985;SDS011;58645;43.068;25.610;2023-07-29T08:18:26;2.50;;;1.70;;
70985;SDS011;58645;43.068;25.610;2023-07-29T08:20:54;3.63;;;1.63;;
70985;SDS011;58645;43.068;25.610;2023-07-29T08:23:24;3.53;;;1.85;;
70985;SDS011;58645;43.068;25.610;2023-07-29T08:25:52;3.45;;;1.80;;
70985;SDS011;58645;43.068;25.610;2023-07-29T08:28:26;2.15;;;1.63;;
70985;SDS011;58645;43.068;25.610;2023-07-29T08:30:55;3.38;;;1.83;;
70985;SDS011;58645;43.068;25.610;2023-07-29T08:33:21;2.38;;;1.48;;
70985;SDS011;58645;43.068;25.610;2023-07-29T08:35:47;3.08;;;1.83;;
70985;SDS011;58645;43.068;25.610;2023-07-29T08:38:12;4.22;;;1.75;;
70985;SDS011;58645;43.068;25.610;2023-07-29T08:40:41;1.77;;;1.52;;
70985;SDS011;58645;43.068;25.610;2023-07-29T08:43:10;2.25;;;1.52;;
70985;SDS011;58645;43.068;25.610;2023-07-29T08:45:37;2.75;;;1.80;;
70985;SDS011;58645;43.068;25.610;2023-07-29T08:48:05;3.03;;;1.63;;
70985;SDS011;58645;43.068;25.610;2023-07-29T08:50:36;3.08;;;1.55;;
70985;SDS011;58645;43.068;25.610;2023-07-29T08:53:03;2.92;;;1.67;;
70985;SDS011;58645;43.068;25.610;2023-07-29T08:55:33;4.15;;;1.58;;
70985;SDS011;58645;43.068;25.610;2023-07-29T08:57:59;2.00;;;1.65;;
70985;SDS011;58645;43.068;25.610;2023-07-29T09:00:27;5.03;;;2.30;;
70985;SDS011;58645;43.068;25.610;2023-07-29T09:02:54;3.25;;;1.83;;
70985;SDS011;58645;43.068;25.610;2023-07-29T09:05:20;3.85;;;2.00;;
70985;SDS011;58645;43.068;25.610;2023-07-29T09:07:47;5.13;;;1.80;;
70985;SDS011;58645;43.068;25.610;2023-07-29T09:10:15;2.92;;;1.63;;
70985;SDS011;58645;43.068;25.610;2023-07-29T09:12:41;2.92;;;1.45;;
70985;SDS011;58645;43.068;25.610;2023-07-29T09:15:07;2.05;;;1.60;;
70985;SDS011;58645;43.068;25.610;2023-07-29T09:17:33;3.83;;;1.95;;
70985;SDS011;58645;43.068;25.610;2023-07-29T09:19:59;2.72;;;1.58;;
70985;SDS011;58645;43.068;25.610;2023-07-29T09:22:25;3.20;;;1.83;;
70985;SDS011;58645;43.068;25.610;2023-07-29T09:24:52;2.03;;;1.80;;
70985;SDS011;58645;43.068;25.610;2023-07-29T09:27:28;2.50;;;1.75;;
70985;SDS011;58645;43.068;25.610;2023-07-29T09:29:57;2.85;;;2.15;;
70985;SDS011;58645;43.068;25.610;2023-07-29T09:32:23;2.97;;;2.10;;
70985;SDS011;58645;43.068;25.610;2023-07-29T09:34:50;3.13;;;2.22;;
70985;SDS011;58645;43.068;25.610;2023-07-29T09:37:17;3.00;;;1.75;;
70985;SDS011;58645;43.068;25.610;2023-07-29T09:39:47;3.67;;;1.83;;
70985;SDS011;58645;43.068;25.610;2023-07-29T09:42:19;3.10;;;1.83;;
70985;SDS011;58645;43.068;25.610;2023-07-29T09:44:47;2.40;;;1.95;;
70985;SDS011;58645;43.068;25.610;2023-07-29T09:47:24;3.08;;;1.85;;
70985;SDS011;58645;43.068;25.610;2023-07-29T09:49:51;2.53;;;1.88;;
70985;SDS011;58645;43.068;25.610;2023-07-29T09:52:18;3.50;;;1.65;;
70985;SDS011;58645;43.068;25.610;2023-07-29T09:54:47;2.30;;;1.70;;
70985;SDS011;58645;43.068;25.610;2023-07-29T09:57:16;5.38;;;2.13;;
70985;SDS011;58645;43.068;25.610;2023-07-29T09:59:53;2.67;;;2.03;;
70985;SDS011;58645;43.068;25.610;2023-07-29T10:02:20;3.97;;;2.40;;
70985;SDS011;58645;43.068;25.610;2023-07-29T10:04:46;3.33;;;2.05;;
70985;SDS011;58645;43.068;25.610;2023-07-29T10:07:12;3.15;;;1.95;;
70985;SDS011;58645;43.068;25.610;2023-07-29T10:09:39;2.40;;;1.95;;
70985;SDS011;58645;43.068;25.610;2023-07-29T10:12:05;4.85;;;1.77;;
70985;SDS011;58645;43.068;25.610;2023-07-29T10:14:32;2.25;;;1.85;;
70985;SDS011;58645;43.068;25.610;2023-07-29T10:16:58;3.63;;;2.00;;
70985;SDS011;58645;43.068;25.610;2023-07-29T10:19:25;2.55;;;2.10;;
70985;SDS011;58645;43.068;25.610;2023-07-29T10:21:51;3.08;;;2.00;;
70985;SDS011;58645;43.068;25.610;2023-07-29T10:24:22;3.30;;;2.20;;
70985;SDS011;58645;43.068;25.610;2023-07-29T10:26:54;3.38;;;2.00;;
70985;SDS011;58645;43.068;25.610;2023-07-29T10:29:27;3.38;;;1.65;;
70985;SDS011;58645;43.068;25.610;2023-07-29T10:31:57;3.10;;;2.25;;
70985;SDS011;58645;43.068;25.610;2023-07-29T10:34:25;3.20;;;2.28;;
70985;SDS011;58645;43.068;25.610;2023-07-29T10:36:52;2.80;;;1.88;;
70985;SDS011;58645;43.068;25.610;2023-07-29T10:39:19;3.80;;;1.98;;
70985;SDS011;58645;43.068;25.610;2023-07-29T10:41:58;2.22;;;1.52;;
70985;SDS011;58645;43.068;25.610;2023-07-29T10:47:32;2.75;;;2.03;;
70985;SDS011;58645;43.068;25.610;2023-07-29T10:49:58;2.20;;;1.80;;
70985;SDS011;58645;43.068;25.610;2023-07-29T10:52:42;3.08;;;2.28;;
70985;SDS011;58645;43.068;25.610;2023-07-29T10:55:24;2.95;;;1.80;;
70985;SDS011;58645;43.068;25.610;2023-07-29T10:57:52;2.60;;;1.75;;
70985;SDS011;58645;43.068;25.610;2023-07-29T11:00:19;4.43;;;1.70;;
70985;SDS011;58645;43.068;25.610;2023-07-29T11:03:01;3.22;;;1.73;;
70985;SDS011;58645;43.068;25.610;2023-07-29T11:05:46;2.47;;;1.83;;
70985;SDS011;58645;43.068;25.610;2023-07-29T11:08:18;3.25;;;1.90;;
70985;SDS011;58645;43.068;25.610;2023-07-29T11:10:57;2.67;;;1.67;;
70985;SDS011;58645;43.068;25.610;2023-07-29T11:13:25;3.10;;;1.75;;
70985;SDS011;58645;43.068;25.610;2023-07-29T11:15:55;2.60;;;1.70;;
70985;SDS011;58645;43.068;25.610;2023-07-29T11:18:23;2.00;;;1.70;;
70985;SDS011;58645;43.068;25.610;2023-07-29T11:20:53;3.00;;;1.83;;
70985;SDS011;58645;43.068;25.610;2023-07-29T11:23:21;7.25;;;1.88;;
70985;SDS011;58645;43.068;25.610;2023-07-29T11:25:56;2.25;;;1.73;;
70985;SDS011;58645;43.068;25.610;2023-07-29T11:28:23;2.75;;;1.90;;
70985;SDS011;58645;43.068;25.610;2023-07-29T11:30:49;2.53;;;1.65;;
70985;SDS011;58645;43.068;25.610;2023-07-29T11:33:20;2.45;;;1.45;;
70985;SDS011;58645;43.068;25.610;2023-07-29T11:35:47;2.38;;;1.63;;
70985;SDS011;58645;43.068;25.610;2023-07-29T11:38:16;2.47;;;1.52;;
70985;SDS011;58645;43.068;25.610;2023-07-29T11:40:43;2.85;;;1.33;;
70985;SDS011;58645;43.068;25.610;2023-07-29T11:43:22;1.60;;;1.40;;
70985;SDS011;58645;43.068;25.610;2023-07-29T11:45:47;2.47;;;1.55;;
70985;SDS011;58645;43.068;25.610;2023-07-29T11:48:13;2.20;;;1.52;;
70985;SDS011;58645;43.068;25.610;2023-07-29T11:50:39;2.65;;;1.40;;
70985;SDS011;58645;43.068;25.610;2023-07-29T11:53:05;2.13;;;1.63;;
70985;SDS011;58645;43.068;25.610;2023-07-29T11:55:30;1.90;;;1.52;;
70985;SDS011;58645;43.068;25.610;2023-07-29T11:57:58;2.72;;;1.42;;
70985;SDS011;58645;43.068;25.610;2023-07-29T12:00:24;2.17;;;1.55;;
70985;SDS011;58645;43.068;25.610;2023-07-29T12:02:50;2.13;;;1.90;;
70985;SDS011;58645;43.068;25.610;2023-07-29T12:05:16;1.90;;;1.42;;
70985;SDS011;58645;43.068;25.610;2023-07-29T12:07:46;1.70;;;1.38;;
70985;SDS011;58645;43.068;25.610;2023-07-29T12:10:12;2.00;;;1.55;;
70985;SDS011;58645;43.068;25.610;2023-07-29T12:12:49;2.92;;;1.35;;
70985;SDS011;58645;43.068;25.610;2023-07-29T12:15:22;2.53;;;1.52;;
70985;SDS011;58645;43.068;25.610;2023-07-29T12:17:52;3.92;;;1.42;;
70985;SDS011;58645;43.068;25.610;2023-07-29T12:20:21;1.80;;;1.23;;
70985;SDS011;58645;43.068;25.610;2023-07-29T12:22:54;1.75;;;1.23;;
70985;SDS011;58645;43.068;25.610;2023-07-29T12:25:21;1.58;;;1.25;;
70985;SDS011;58645;43.068;25.610;2023-07-29T12:27:48;1.73;;;1.23;;
70985;SDS011;58645;43.068;25.610;2023-07-29T12:30:14;2.17;;;1.40;;
70985;SDS011;58645;43.068;25.610;2023-07-29T12:32:44;1.98;;;1.35;;
70985;SDS011;58645;43.068;25.610;2023-07-29T12:35:10;1.77;;;1.30;;
70985;SDS011;58645;43.068;25.610;2023-07-29T12:37:36;3.28;;;1.27;;
70985;SDS011;58645;43.068;25.610;2023-07-29T12:40:04;2.28;;;1.30;;
70985;SDS011;58645;43.068;25.610;2023-07-29T12:42:30;2.00;;;1.38;;
70985;SDS011;58645;43.068;25.610;2023-07-29T12:44:55;1.75;;;1.23;;
70985;SDS011;58645;43.068;25.610;2023-07-29T12:47:21;1.85;;;1.27;;
70985;SDS011;58645;43.068;25.610;2023-07-29T12:49:47;1.80;;;1.33;;
70985;SDS011;58645;43.068;25.610;2023-07-29T12:52:12;3.53;;;1.55;;
70985;SDS011;58645;43.068;25.610;2023-07-29T12:54:38;2.30;;;1.33;;
70985;SDS011;58645;43.068;25.610;2023-07-29T12:57:05;2.70;;;1.25;;
70985;SDS011;58645;43.068;25.610;2023-07-29T12:59:31;2.67;;;1.27;;
70985;SDS011;58645;43.068;25.610;2023-07-29T13:01:57;2.80;;;1.10;;
70985;SDS011;58645;43.068;25.610;2023-07-29T13:04:22;2.08;;;1.33;;
70985;SDS011;58645;43.068;25.610;2023-07-29T13:06:48;2.70;;;1.20;;
70985;SDS011;58645;43.068;25.610;2023-07-29T13:09:14;2.50;;;1.30;;
70985;SDS011;58645;43.068;25.610;2023-07-29T13:11:39;1.65;;;1.23;;
70985;SDS011;58645;43.068;25.610;2023-07-29T13:14:05;1.98;;;1.52;;
70985;SDS011;58645;43.068;25.610;2023-07-29T13:16:31;3.00;;;1.33;;
70985;SDS011;58645;43.068;25.610;2023-07-29T13:18:57;2.95;;;1.50;;
70985;SDS011;58645;43.068;25.610;2023-07-29T13:21:23;2.28;;;1.05;;
70985;SDS011;58645;43.068;25.610;2023-07-29T13:23:48;2.10;;;1.20;;
70985;SDS011;58645;43.068;25.610;2023-07-29T13:26:14;1.65;;;1.33;;
70985;SDS011;58645;43.068;25.610;2023-07-29T13:28:40;1.38;;;1.10;;
70985;SDS011;58645;43.068;25.610;2023-07-29T13:31:05;2.05;;;1.20;;
70985;SDS011;58645;43.068;25.610;2023-07-29T13:33:31;2.65;;;1.35;;
70985;SDS011;58645;43.068;25.610;2023-07-29T13:35:59;1.58;;;1.23;;
70985;SDS011;58645;43.068;25.610;2023-07-29T13:38:27;2.47;;;1.20;;
70985;SDS011;58645;43.068;25.610;2023-07-29T13:40:53;2.10;;;1.23;;
70985;SDS011;58645;43.068;25.610;2023-07-29T13:43:18;1.67;;;1.17;;
70985;SDS011;58645;43.068;25.610;2023-07-29T13:45:44;2.03;;;1.30;;
70985;SDS011;58645;43.068;25.610;2023-07-29T13:48:10;2.08;;;1.30;;
70985;SDS011;58645;43.068;25.610;2023-07-29T13:50:36;2.22;;;1.65;;
70985;SDS011;58645;43.068;25.610;2023-07-29T13:53:01;2.88;;;1.30;;
70985;SDS011;58645;43.068;25.610;2023-07-29T13:55:27;1.65;;;1.10;;
70985;SDS011;58645;43.068;25.610;2023-07-29T13:57:53;3.83;;;1.42;;
70985;SDS011;58645;43.068;25.610;2023-07-29T14:00:19;1.63;;;1.23;;
70985;SDS011;58645;43.068;25.610;2023-07-29T14:02:45;2.40;;;1.50;;
70985;SDS011;58645;43.068;25.610;2023-07-29T14:05:10;2.08;;;1.33;;
70985;SDS011;58645;43.068;25.610;2023-07-29T14:07:37;1.95;;;1.17;;
70985;SDS011;58645;43.068;25.610;2023-07-29T14:10:03;1.60;;;1.17;;
70985;SDS011;58645;43.068;25.610;2023-07-29T14:12:29;2.50;;;1.25;;
70985;SDS011;58645;43.068;25.610;2023-07-29T14:14:54;3.38;;;1.20;;
70985;SDS011;58645;43.068;25.610;2023-07-29T14:17:20;2.88;;;1.40;;
70985;SDS011;58645;43.068;25.610;2023-07-29T14:19:46;2.20;;;1.33;;
70985;SDS011;58645;43.068;25.610;2023-07-29T14:22:11;2.78;;;1.05;;
70985;SDS011;58645;43.068;25.610;2023-07-29T14:24:37;1.35;;;1.00;;
70985;SDS011;58645;43.068;25.610;2023-07-29T14:27:03;3.92;;;1.55;;
70985;SDS011;58645;43.068;25.610;2023-07-29T14:29:29;2.92;;;1.20;;
70985;SDS011;58645;43.068;25.610;2023-07-29T14:31:55;3.38;;;1.30;;
70985;SDS011;58645;43.068;25.610;2023-07-29T14:34:20;2.65;;;1.27;;
70985;SDS011;58645;43.068;25.610;2023-07-29T14:36:46;2.10;;;1.33;;
70985;SDS011;58645;43.068;25.610;2023-07-29T14:39:12;2.78;;;1.40;;
70985;SDS011;58645;43.068;25.610;2023-07-29T14:41:37;2.67;;;1.30;;
70985;SDS011;58645;43.068;25.610;2023-07-29T14:44:03;2.08;;;1.38;;
70985;SDS011;58645;43.068;25.610;2023-07-29T14:46:29;3.40;;;1.52;;
70985;SDS011;58645;43.068;25.610;2023-07-29T14:48:55;3.47;;;1.58;;
70985;SDS011;58645;43.068;25.610;2023-07-29T14:51:21;2.70;;;1.70;;
70985;SDS011;58645;43.068;25.610;2023-07-29T14:53:47;4.38;;;2.78;;
70985;SDS011;58645;43.068;25.610;2023-07-29T14:56:13;3.30;;;2.03;;
70985;SDS011;58645;43.068;25.610;2023-07-29T14:58:42;2.30;;;1.63;;
70985;SDS011;58645;43.068;25.610;2023-07-29T15:01:08;2.15;;;1.40;;
70985;SDS011;58645;43.068;25.610;2023-07-29T15:03:34;2.63;;;1.60;;
70985;SDS011;58645;43.068;25.610;2023-07-29T15:05:59;2.70;;;1.48;;
70985;SDS011;58645;43.068;25.610;2023-07-29T15:08:25;2.85;;;1.58;;